Time;durP1;ratioP1;P1;durP2;ratioP2;P2;SDS_P1;SDS_P2;PMS_P1;PMS_P2;Temp;Humidity;BMP_temperature;BMP_pressure;BME280_temperature;BME280_humidity;BME280_pressure;Samples;Min_cycle;Max_cycle;Signal;HPM_P1;HPM_P2
2023/06/03 00:02:43;;;;;;;9.50;5.90;;;;;;;8.34;46.78;101104.11;109246;1275;23033;-77
2023/06/03 00:05:30;;;;;;;8.20;5.50;;;;;;;8.28;47.01;101103.86;108995;1275;22009;-76
2023/06/03 00:08:19;;;;;;;11.10;4.00;;;;;;;8.25;47.17;101103.58;109084;1274;22982;-77
2023/06/03 00:10:57;;;;;;;9.00;4.70;;;;;;;8.23;47.30;101107.23;109253;1274;21985;-76
2023/06/03 00:13:31;;;;;;;9.30;4.20;;;;;;;8.21;47.40;101110.73;109208;1275;22446;-77
2023/06/03 00:16:06;;;;;;;6.40;3.30;;;;;;;8.19;47.61;101109.20;108901;1275;22265;-76
2023/06/03 00:18:54;;;;;;;9.90;3.50;;;;;;;8.16;47.55;101109.09;109626;1268;22066;-76
2023/06/03 00:21:34;;;;;;;4.40;3.40;;;;;;;8.12;47.68;101109.48;109854;1268;21974;-76
2023/06/03 00:24:13;;;;;;;4.70;3.60;;;;;;;8.09;47.69;101114.92;109909;1268;21977;-78
2023/06/03 00:27:24;;;;;;;5.70;3.70;;;;;;;8.05;47.89;101116.86;110084;1268;21973;-76
2023/06/03 00:29:59;;;;;;;6.60;3.90;;;;;;;8.01;48.26;101112.60;109271;1275;24334;-77
2023/06/03 00:32:37;;;;;;;5.40;4.10;;;;;;;7.99;48.20;101112.63;109204;1274;22285;-78
2023/06/03 00:35:24;;;;;;;11.30;3.80;;;;;;;7.94;48.22;101119.28;108711;1281;21992;-79
2023/06/03 00:38:20;;;;;;;9.10;3.90;;;;;;;7.89;48.36;101120.41;108642;1281;22858;-78
2023/06/03 00:41:03;;;;;;;5.50;3.80;;;;;;;7.82;48.59;101120.48;108577;1280;21997;-76
2023/06/03 00:43:37;;;;;;;7.50;4.50;;;;;;;7.78;48.70;101123.51;108557;1280;21996;-76
2023/06/03 00:46:41;;;;;;;6.30;4.50;;;;;;;7.75;49.02;101125.80;108785;1280;22020;-78
2023/06/03 00:49:19;;;;;;;9.40;5.20;;;;;;;7.74;49.11;101129.27;108802;1280;22001;-79
2023/06/03 00:52:00;;;;;;;10.70;6.50;;;;;;;7.73;49.07;101129.13;108808;1280;21995;-78
2023/06/03 00:54:49;;;;;;;11.00;5.80;;;;;;;7.69;49.17;101131.42;109226;1274;23115;-78
2023/06/03 00:57:27;;;;;;;8.10;5.60;;;;;;;7.64;49.38;101137.89;109023;1276;21986;-78
2023/06/03 00:59:55;;;;;;;10.90;6.80;;;;;;;7.61;49.46;101140.34;108937;1270;23033;-76
2023/06/03 01:02:33;;;;;;;9.40;6.00;;;;;;;7.58;49.56;101143.86;109025;1276;21984;-76
2023/06/03 01:05:20;;;;;;;10.80;5.50;;;;;;;7.49;49.69;101134.46;108947;1276;21991;-77
2023/06/03 01:09:02;;;;;;;6.40;4.40;;;;;;;7.49;49.96;101140.87;109542;1271;22019;-76
2023/06/03 01:12:15;;;;;;;10.20;4.30;;;;;;;7.40;50.26;101141.83;108118;1288;22007;-79
2023/06/03 01:15:20;;;;;;;10.20;3.30;;;;;;;7.32;50.46;101149.90;108240;1276;22005;-77
2023/06/03 01:17:52;;;;;;;6.60;3.10;;;;;;;7.28;50.42;101148.55;108076;1284;23027;-76
2023/06/03 01:20:38;;;;;;;6.50;2.80;;;;;;;7.28;50.65;101145.96;108168;1289;22014;-77
2023/06/03 01:23:23;;;;;;;5.70;2.50;;;;;;;7.23;50.79;101145.67;108103;1289;22006;-76
2023/06/03 01:26:09;;;;;;;7.20;3.20;;;;;;;7.19;50.96;101143.64;108142;1286;22116;-77
2023/06/03 01:29:18;;;;;;;6.60;2.90;;;;;;;7.14;51.17;101143.70;108103;1285;22005;-78
2023/06/03 01:32:12;;;;;;;7.60;4.40;;;;;;;7.08;51.23;101147.23;108627;1285;22018;-77
2023/06/03 01:35:18;;;;;;;13.20;6.60;;;;;;;6.99;51.29;101152.50;108321;1285;22902;-78
2023/06/03 01:38:02;;;;;;;14.80;7.60;;;;;;;6.92;51.63;101149.98;108515;1285;23721;-79
2023/06/03 01:40:44;;;;;;;13.00;8.10;;;;;;;6.94;51.79;101155.15;108220;1290;22025;-78
2023/06/03 01:43:18;;;;;;;16.60;8.80;;;;;;;6.94;51.81;101157.23;108146;1290;22040;-79
2023/06/03 01:45:48;;;;;;;14.20;7.90;;;;;;;6.91;51.94;101151.19;107683;1293;22937;-79
2023/06/03 01:48:23;;;;;;;11.00;7.60;;;;;;;6.90;52.13;101155.20;108240;1280;22003;-78
2023/06/03 01:50:56;;;;;;;11.10;5.90;;;;;;;6.89;52.28;101157.45;108569;1280;22037;-78
2023/06/03 01:53:26;;;;;;;9.20;5.40;;;;;;;6.86;52.37;101163.19;108810;1280;22667;-79
2023/06/03 01:56:00;;;;;;;10.70;5.80;;;;;;;6.80;52.44;101167.20;108522;1283;22167;-78
2023/06/03 01:58:38;;;;;;;15.60;6.50;;;;;;;6.74;52.62;101166.58;108570;1279;22484;-77
2023/06/03 02:01:08;;;;;;;9.90;4.80;;;;;;;6.70;52.68;101162.98;108885;1278;24347;-78
2023/06/03 02:03:40;;;;;;;11.90;6.10;;;;;;;6.62;52.86;101162.20;108859;1278;22059;-78
2023/06/03 02:06:13;;;;;;;11.00;5.20;;;;;;;6.55;53.00;101161.73;108953;1278;23757;-76
2023/06/03 02:08:44;;;;;;;12.00;6.10;;;;;;;6.53;53.17;101167.29;108925;1278;23612;-79
2023/06/03 02:11:14;;;;;;;9.30;5.60;;;;;;;6.48;53.37;101170.08;109149;1276;22009;-78
2023/06/03 02:13:45;;;;;;;10.60;5.90;;;;;;;6.41;53.61;101167.89;109196;1272;21993;-80
2023/06/03 02:16:18;;;;;;;10.20;6.20;;;;;;;6.38;53.92;101166.53;109295;1273;23678;-77
2023/06/03 02:18:51;;;;;;;12.50;6.40;;;;;;;6.40;54.05;101174.64;108908;1278;22001;-78
2023/06/03 02:21:20;;;;;;;14.30;6.60;;;;;;;6.38;54.32;101178.98;108827;1278;22009;-78
2023/06/03 02:23:54;;;;;;;;;;;;;;;6.33;54.44;101180.58;108837;1278;24390;-77
2023/06/03 02:26:23;;;;;;;12.90;6.50;;;;;;;6.21;54.92;101184.63;108913;1278;21990;-76
2023/06/03 02:29:03;;;;;;;11.10;6.20;;;;;;;6.17;55.18;101189.84;108868;1278;21988;-76
2023/06/03 02:32:02;;;;;;;12.10;6.40;;;;;;;6.14;55.32;101195.55;108960;1278;21989;-78
2023/06/03 02:34:35;;;;;;;16.70;6.40;;;;;;;6.08;55.54;101193.86;108645;1278;23647;-78
2023/06/03 02:37:10;;;;;;;11.00;6.60;;;;;;;6.04;55.81;101197.00;109569;1268;22231;-79
2023/06/03 02:39:39;;;;;;;11.10;5.70;;;;;;;5.99;56.16;101198.06;109651;1268;22771;-78
2023/06/03 02:42:25;;;;;;;12.20;6.60;;;;;;;5.92;56.28;101198.77;109792;1267;24088;-76
2023/06/03 02:44:59;;;;;;;10.00;5.30;;;;;;;5.88;56.34;101202.58;110151;1268;22684;-80
2023/06/03 02:47:32;;;;;;;11.20;6.20;;;;;;;5.85;56.66;101204.66;109440;1272;22002;-78
2023/06/03 02:50:09;;;;;;;10.20;5.90;;;;;;;5.84;56.88;101206.23;109388;1272;22009;-76
2023/06/03 02:52:41;;;;;;;11.10;6.00;;;;;;;5.83;57.10;101203.64;109530;1273;23065;-77
2023/06/03 02:55:16;;;;;;;12.00;5.60;;;;;;;5.84;57.32;101207.09;109080;1276;23395;-78
2023/06/03 02:58:15;;;;;;;6.00;4.50;;;;;;;5.85;57.20;101208.98;108978;1276;21986;-78
2023/06/03 03:01:04;;;;;;;8.00;5.00;;;;;;;5.82;57.36;101210.38;108632;1283;22804;-78
2023/06/03 03:03:52;;;;;;;14.40;6.70;;;;;;;5.80;57.43;101209.86;108420;1283;22050;-79
2023/06/03 03:06:37;;;;;;;9.70;6.30;;;;;;;5.80;57.46;101209.36;108723;1278;21992;-77
2023/06/03 03:09:26;;;;;;;13.50;6.60;;;;;;;5.78;57.49;101210.23;108877;1278;21984;-79
2023/06/03 03:12:02;;;;;;;9.40;7.50;;;;;;;5.77;57.66;101210.22;108859;1278;22021;-80
2023/06/03 03:14:43;;;;;;;10.40;9.10;;;;;;;5.77;57.76;101209.54;109308;1275;21985;-78
2023/06/03 03:17:35;;;;;;;13.20;10.90;;;;;;;5.78;57.92;101215.06;109214;1267;21990;-80
2023/06/03 03:20:24;;;;;;;11.10;7.40;;;;;;;5.76;58.14;101211.60;109408;1275;23172;-77
2023/06/03 03:22:55;;;;;;;10.50;6.20;;;;;;;5.78;58.09;101213.85;108788;1280;23154;-78
2023/06/03 03:25:31;;;;;;;10.90;6.00;;;;;;;5.79;58.25;101212.98;108406;1284;21995;-77
2023/06/03 03:28:01;;;;;;;10.70;6.00;;;;;;;5.82;58.20;101216.92;108573;1284;23104;-78
2023/06/03 03:30:42;;;;;;;7.70;6.10;;;;;;;5.85;58.40;101214.85;108497;1284;22039;-78
2023/06/03 03:33:20;;;;;;;7.90;6.30;;;;;;;5.91;58.43;101217.92;108540;1284;23012;-79
2023/06/03 03:35:54;;;;;;;10.30;6.30;;;;;;;5.96;58.52;101220.70;108381;1284;22041;-77
2023/06/03 03:38:31;;;;;;;7.90;5.90;;;;;;;6.01;58.56;101224.30;108390;1285;22006;-78
2023/06/03 03:41:08;;;;;;;10.70;6.00;;;;;;;6.09;58.79;101224.61;108387;1268;23164;-78
2023/06/03 03:43:39;;;;;;;9.40;6.70;;;;;;;6.19;58.95;101230.95;108822;1278;23027;-79
2023/06/03 03:46:22;;;;;;;9.00;6.40;;;;;;;6.28;58.88;101233.67;108879;1278;21994;-77
2023/06/03 03:48:56;;;;;;;10.50;6.80;;;;;;;6.38;58.93;101237.93;108828;1278;22010;-78
2023/06/03 03:51:38;;;;;;;9.90;6.50;;;;;;;6.46;58.98;101239.79;109105;1278;21988;-78
2023/06/03 03:54:15;;;;;;;11.90;6.10;;;;;;;6.54;59.04;101241.63;109099;1278;23085;-80
2023/06/03 03:56:56;;;;;;;9.60;6.00;;;;;;;6.62;59.13;101243.65;109374;1268;22973;-79
2023/06/03 03:59:29;;;;;;;11.80;6.60;;;;;;;6.72;59.00;101247.21;109717;1268;21968;-78
2023/06/03 04:02:01;;;;;;;8.10;6.20;;;;;;;6.81;58.86;101249.40;110373;1267;22043;-78
2023/06/03 04:04:46;;;;;;;10.70;5.80;;;;;;;6.91;58.87;101253.98;109735;1268;21984;-78
2023/06/03 04:07:21;;;;;;;8.70;6.00;;;;;;;6.99;58.99;101253.91;109479;1268;23602;-78
2023/06/03 04:09:57;;;;;;;9.30;5.40;;;;;;;7.17;58.85;101258.60;109942;1268;23004;-78
2023/06/03 04:12:36;;;;;;;8.90;5.40;;;;;;;7.31;58.71;101258.64;109956;1268;23148;-78
2023/06/03 04:15:18;;;;;;;7.70;3.40;;;;;;;7.46;58.71;101260.39;110004;1268;21984;-77
2023/06/03 04:18:23;;;;;;;5.80;4.40;;;;;;;7.67;58.28;101265.19;110168;1268;22013;-77
2023/06/03 04:21:00;;;;;;;6.50;3.60;;;;;;;7.79;58.16;101264.35;110267;1267;23644;-81
2023/06/03 04:23:36;;;;;;;7.50;3.40;;;;;;;7.97;58.17;101264.14;110136;1267;23702;-78
2023/06/03 04:26:19;;;;;;;5.60;3.00;;;;;;;8.19;58.09;101262.83;106143;1268;4953734;-79
2023/06/03 04:29:06;;;;;;;4.30;2.60;;;;;;;8.44;57.73;101268.40;109765;1267;22361;-78
2023/06/03 04:31:44;;;;;;;4.70;2.50;;;;;;;8.65;57.12;101268.80;109794;1268;24301;-78
2023/06/03 04:34:20;;;;;;;6.00;2.30;;;;;;;8.87;56.60;101271.93;109150;1273;21995;-80
2023/06/03 04:37:15;;;;;;;8.40;2.50;;;;;;;9.10;56.66;101271.20;109381;1273;21992;-79
2023/06/03 04:39:54;;;;;;;4.00;1.80;;;;;;;9.45;56.73;101268.34;109216;1273;22555;-78
2023/06/03 04:42:26;;;;;;;9.60;2.50;;;;;;;9.94;56.83;101268.23;109164;1273;22561;-79
2023/06/03 04:45:05;;;;;;;5.50;2.40;;;;;;;10.47;56.45;101264.17;108942;1277;22765;-79
2023/06/03 04:47:58;;;;;;;5.20;2.60;;;;;;;11.04;54.94;101248.71;109013;1276;22026;-79
2023/06/03 04:50:35;;;;;;;6.80;2.30;;;;;;;11.66;53.11;101269.18;108907;1277;21986;-78
2023/06/03 04:53:18;;;;;;;3.80;2.10;;;;;;;12.20;52.37;101265.58;109331;1272;21980;-79
2023/06/03 04:56:24;;;;;;;3.50;1.90;;;;;;;12.79;51.51;101267.08;109550;1272;22006;-78
2023/06/03 04:59:09;;;;;;;4.50;1.50;;;;;;;13.37;49.33;101265.31;109230;1275;23761;-80
2023/06/03 05:01:56;;;;;;;5.40;2.10;;;;;;;13.54;47.44;101262.98;109130;1275;23041;-80
2023/06/03 05:04:33;;;;;;;5.40;2.00;;;;;;;13.80;47.60;101266.43;109218;1272;22171;-78
2023/06/03 05:07:12;;;;;;;3.70;1.70;;;;;;;14.21;46.92;101264.20;109352;1272;21995;-77
2023/06/03 05:09:41;;;;;;;5.20;1.90;;;;;;;14.52;45.49;101268.07;109423;1272;21982;-77
2023/06/03 05:12:10;;;;;;;4.60;2.00;;;;;;;14.66;44.73;101266.69;109449;1272;22873;-77
2023/06/03 05:14:43;;;;;;;5.00;1.90;;;;;;;14.96;45.12;101269.86;109330;1272;23050;-78
2023/06/03 05:17:32;;;;;;;;;;;;;;;;;;;;;
2023/06/03 05:20:54;;;;;;;;;;;;;;;;;;;;;
2023/06/03 05:24:36;;;;;;;4.30;1.50;;;;;;;15.39;42.31;101270.63;109041;1275;23057;-79
2023/06/03 05:27:23;;;;;;;3.80;1.60;;;;;;;15.36;42.19;101270.09;108723;1281;22012;-79
2023/06/03 05:30:50;;;;;;;5.40;1.90;;;;;;;15.41;42.34;101271.27;108520;1281;22010;-80
2023/06/03 05:33:37;;;;;;;4.20;1.70;;;;;;;15.63;42.33;101273.82;108618;1281;21996;-78
2023/06/03 05:36:49;;;;;;;4.70;1.50;;;;;;;16.01;42.55;101271.23;108627;1281;21995;-78
2023/06/03 05:40:01;;;;;;;5.80;1.40;;;;;;;16.42;41.29;101269.86;109075;1273;21979;-79
2023/06/03 05:42:40;;;;;;;2.60;1.20;;;;;;;16.56;39.99;101274.84;109181;1273;22981;-77
2023/06/03 05:45:16;;;;;;;2.90;1.30;;;;;;;16.49;39.37;101274.30;109704;1268;21977;-79
2023/06/03 05:48:21;;;;;;;2.20;1.20;;;;;;;16.54;39.90;101271.58;109796;1268;21994;-81
2023/06/03 05:51:09;;;;;;;3.80;2.10;;;;;;;16.82;39.95;101271.84;109822;1267;21998;-78
2023/06/03 05:53:46;;;;;;;5.00;3.00;;;;;;;17.14;39.37;101271.33;110151;1268;23706;-78
2023/06/03 05:56:40;;;;;;;2.60;1.20;;;;;;;17.30;38.32;101271.73;109204;1273;23732;-79
2023/06/03 05:59:14;;;;;;;3.70;1.50;;;;;;;17.35;37.78;101271.32;108931;1279;23726;-78
2023/06/03 06:02:03;;;;;;;3.30;1.00;;;;;;;17.25;37.51;101275.67;108824;1273;22164;-80
2023/06/03 06:04:37;;;;;;;4.00;1.30;;;;;;;17.24;37.27;101276.80;108916;1279;21973;-79
2023/06/03 06:07:36;;;;;;;2.50;1.20;;;;;;;17.27;37.56;101270.98;108885;1279;22081;-79
2023/06/03 06:10:24;;;;;;;2.30;1.30;;;;;;;17.36;37.33;101269.84;108452;1283;22025;-78
2023/06/03 06:13:15;;;;;;;4.80;1.20;;;;;;;17.55;37.36;101273.42;108528;1280;22679;-78
2023/06/03 06:16:13;;;;;;;4.40;0.80;;;;;;;17.90;37.01;101275.83;108207;1287;22067;-80
2023/06/03 06:18:54;;;;;;;2.50;1.30;;;;;;;18.25;36.68;101275.84;108611;1285;22202;-79
2023/06/03 06:21:33;;;;;;;3.90;1.00;;;;;;;18.65;35.97;101278.56;108498;1285;22003;-81
2023/06/03 06:24:13;;;;;;;3.70;1.20;;;;;;;18.92;35.28;101272.47;108592;1285;22532;-79
2023/06/03 06:26:42;;;;;;;6.10;2.50;;;;;;;19.19;34.85;101277.58;108561;1285;22006;-79
2023/06/03 06:29:15;;;;;;;15.30;1.80;;;;;;;19.43;34.56;101277.20;108817;1281;21974;-79
2023/06/03 06:32:01;;;;;;;2.40;1.00;;;;;;;19.54;33.76;101274.09;108836;1281;21998;-80
2023/06/03 06:34:41;;;;;;;15.20;3.70;;;;;;;19.49;33.34;101273.16;109063;1278;22096;-79
2023/06/03 06:37:23;;;;;;;2.30;1.40;;;;;;;19.16;32.40;101272.13;109339;1273;23039;-77
2023/06/03 06:40:24;;;;;;;3.10;1.40;;;;;;;18.70;32.91;101269.80;109339;1267;23734;-79
2023/06/03 06:43:36;;;;;;;;;;;;;;;;;;;;;
2023/06/03 06:46:12;;;;;;;2.60;1.20;;;;;;;18.93;33.46;101267.27;110246;1268;22007;-78
2023/06/03 06:48:44;;;;;;;4.10;1.00;;;;;;;18.93;32.72;101267.13;109525;1273;21993;-80
2023/06/03 06:51:14;;;;;;;4.20;1.20;;;;;;;18.80;32.42;101263.97;109534;1267;25022;-77
2023/06/03 06:53:52;;;;;;;1.90;0.90;;;;;;;18.84;33.12;101271.35;109301;1273;23905;-77
2023/06/03 06:56:22;;;;;;;4.00;1.30;;;;;;;18.96;32.43;101273.47;108972;1276;21992;-79
2023/06/03 06:58:56;;;;;;;3.00;1.20;;;;;;;18.96;32.17;101269.20;109171;1263;21986;-78
2023/06/03 07:01:28;;;;;;;2.70;1.00;;;;;;;19.05;32.00;101271.52;108583;1282;22098;-78
2023/06/03 07:07:34;;;;;;;4.20;2.20;;;;;;;18.85;31.38;101269.17;108257;1287;22007;-79
2023/06/03 07:10:19;;;;;;;1.60;1.00;;;;;;;18.85;31.73;101274.09;108150;1287;23173;-80
2023/06/03 07:13:07;;;;;;;3.40;1.00;;;;;;;18.98;31.47;101272.29;108452;1287;23806;-79
2023/06/03 07:16:02;;;;;;;2.30;1.00;;;;;;;19.23;31.36;101275.05;108610;1284;22110;-80
2023/06/03 07:18:43;;;;;;;3.30;1.00;;;;;;;19.56;30.64;101278.92;108590;1280;22003;-79
2023/06/03 07:21:16;;;;;;;3.70;1.00;;;;;;;19.53;29.65;101277.86;109157;1273;23069;-78
2023/06/03 07:23:49;;;;;;;1.30;0.70;;;;;;;19.47;29.91;101276.08;109344;1273;22048;-80
2023/06/03 07:26:28;;;;;;;1.90;1.00;;;;;;;19.66;30.08;101275.30;109911;1267;21989;-80
2023/06/03 07:29:47;;;;;;;3.00;1.20;;;;;;;19.87;29.53;101275.61;109283;1273;22013;-83
2023/06/03 07:32:28;;;;;;;2.40;0.60;;;;;;;20.02;29.23;101278.59;109390;1273;22048;-79
2023/06/03 07:35:19;;;;;;;1.50;0.60;;;;;;;19.98;29.04;101279.33;109319;1273;24189;-79
2023/06/03 07:38:10;;;;;;;2.50;0.70;;;;;;;20.01;28.24;101274.40;109449;1273;22001;-80
2023/06/03 07:40:51;;;;;;;2.80;1.10;;;;;;;19.81;27.84;101272.95;108942;1279;22996;-79
2023/06/03 07:43:22;;;;;;;3.50;1.10;;;;;;;19.90;28.34;101267.44;108854;1278;22043;-80
2023/06/03 07:45:58;;;;;;;2.10;0.80;;;;;;;20.21;28.37;101278.23;108851;1278;22006;-79
2023/06/03 07:48:46;;;;;;;2.40;0.80;;;;;;;20.30;27.62;101276.27;109120;1273;22174;-80
2023/06/03 07:51:36;;;;;;;1.70;1.10;;;;;;;20.29;27.77;101275.63;109189;1273;22160;-79
2023/06/03 07:54:37;;;;;;;3.60;1.30;;;;;;;20.54;27.66;101266.95;108906;1277;22985;-79
2023/06/03 07:57:16;;;;;;;6.00;1.20;;;;;;;21.00;27.59;101270.32;108860;1274;22652;-79
2023/06/03 07:59:56;;;;;;;2.20;0.70;;;;;;;21.27;26.77;101271.50;109487;1272;21997;-78
2023/06/03 08:02:39;;;;;;;5.70;1.10;;;;;;;21.45;26.43;101272.58;109478;1271;21983;-81
2023/06/03 08:05:33;;;;;;;5.90;1.50;;;;;;;21.63;26.14;101273.31;109498;1272;23119;-82
2023/06/03 08:08:09;;;;;;;5.80;1.20;;;;;;;21.49;25.81;101278.14;109619;1272;22843;-77
2023/06/03 08:10:48;;;;;;;2.10;0.60;;;;;;;21.16;26.07;101275.77;109760;1267;22409;-83
2023/06/03 08:13:21;;;;;;;;;;;;;;;21.04;26.84;101273.95;109208;1274;23084;-78
2023/06/03 08:16:07;;;;;;;1.90;0.90;;;;;;;21.20;27.40;101277.66;108985;1279;22016;-79
2023/06/03 08:18:52;;;;;;;1.80;0.80;;;;;;;21.33;26.57;101279.04;108707;1279;22069;-77
2023/06/03 08:21:38;;;;;;;2.40;1.00;;;;;;;21.09;26.02;101280.31;108620;1279;23663;-80
2023/06/03 08:24:25;;;;;;;3.30;1.00;;;;;;;20.87;27.01;101280.58;108642;1279;21985;-78
2023/06/03 08:27:02;;;;;;;3.70;1.50;;;;;;;20.83;26.79;101280.31;108894;1279;22253;-78
2023/06/03 08:29:33;;;;;;;6.00;5.10;;;;;;;20.85;27.24;101278.23;108693;1279;22547;-78
2023/06/03 08:32:01;;;;;;;1.60;1.00;;;;;;;20.89;27.10;101277.45;108960;1273;24897;-79
2023/06/03 08:34:55;;;;;;;4.70;1.10;;;;;;;20.82;26.89;101282.81;109419;1267;21997;-78
2023/06/03 08:37:41;;;;;;;4.00;1.70;;;;;;;20.62;26.98;101286.23;109339;1273;22045;-78
2023/06/03 08:40:25;;;;;;;3.20;1.50;;;;;;;20.68;27.10;101284.30;108674;1279;21992;-79
2023/06/03 08:43:03;;;;;;;7.70;2.30;;;;;;;20.92;27.09;101280.04;108823;1279;22693;-77
2023/06/03 08:45:53;;;;;;;3.00;1.30;;;;;;;21.19;26.75;101279.50;108723;1279;23735;-78
2023/06/03 08:48:45;;;;;;;2.80;1.20;;;;;;;21.30;25.94;101278.36;108821;1276;22019;-78
2023/06/03 08:51:23;;;;;;;5.10;1.00;;;;;;;21.31;25.53;101283.08;108871;1279;22001;-78
2023/06/03 08:53:58;;;;;;;3.30;1.90;;;;;;;21.38;25.79;101283.70;108883;1279;22002;-78
2023/06/03 08:56:35;;;;;;;3.70;1.70;;;;;;;21.55;25.86;101280.95;109068;1274;21991;-79
2023/06/03 08:59:22;;;;;;;4.80;2.90;;;;;;;21.77;26.16;101277.96;108883;1279;21977;-80
2023/06/03 09:02:16;;;;;;;3.50;1.40;;;;;;;21.98;25.82;101278.64;108747;1280;23804;-78
2023/06/03 09:04:58;;;;;;;5.90;1.70;;;;;;;22.07;25.43;101282.44;109211;1273;23701;-78
2023/06/03 09:07:33;;;;;;;2.30;1.50;;;;;;;22.23;25.25;101278.24;109057;1273;22008;-78
2023/06/03 09:10:25;;;;;;;3.60;1.20;;;;;;;22.43;25.06;101272.23;109290;1271;22017;-79
2023/06/03 09:13:04;;;;;;;4.70;0.90;;;;;;;22.58;24.35;101277.58;109160;1273;22962;-79
2023/06/03 09:15:42;;;;;;;2.80;1.00;;;;;;;22.50;24.08;101278.84;109069;1273;22452;-81
2023/06/03 09:18:18;;;;;;;2.10;0.90;;;;;;;22.32;23.67;101279.03;109145;1272;22040;-78
2023/06/03 09:20:50;;;;;;;3.10;1.10;;;;;;;22.07;24.00;101274.10;109319;1272;22907;-78
2023/06/03 09:23:20;;;;;;;4.30;1.40;;;;;;;22.23;24.58;101270.85;109616;1272;23646;-79
2023/06/03 09:25:52;;;;;;;4.10;1.10;;;;;;;22.50;23.99;101271.05;109393;1272;21985;-79
2023/06/03 09:28:29;;;;;;;4.00;1.00;;;;;;;22.51;23.27;101272.23;109158;1275;23726;-77
2023/06/03 09:31:06;;;;;;;1.70;1.10;;;;;;;22.39;23.04;101272.88;109105;1275;23721;-77
2023/06/03 09:33:50;;;;;;;2.10;1.00;;;;;;;22.34;23.36;101266.00;109041;1275;22190;-78
2023/06/03 09:36:21;;;;;;;2.80;0.80;;;;;;;22.48;23.31;101264.11;109159;1271;22877;-77
2023/06/03 09:38:56;;;;;;;4.40;0.80;;;;;;;22.36;22.80;101262.33;109416;1271;24379;-78
2023/06/03 09:41:29;;;;;;;4.00;1.20;;;;;;;22.08;23.03;101265.00;109376;1271;21998;-80
2023/06/03 09:44:03;;;;;;;3.40;0.80;;;;;;;21.93;23.08;101260.07;108964;1275;22010;-77
2023/06/03 09:46:36;;;;;;;4.00;0.90;;;;;;;21.96;23.14;101260.67;108893;1272;22007;-78
2023/06/03 09:49:19;;;;;;;1.70;0.90;;;;;;;22.11;23.27;101261.78;108902;1275;21960;-78
2023/06/03 09:52:36;;;;;;;2.70;1.10;;;;;;;22.24;23.52;101264.77;109269;1272;22114;-80
2023/06/03 09:55:17;;;;;;;2.50;1.30;;;;;;;22.32;23.27;101256.73;109531;1272;22038;-81
2023/06/03 09:58:13;;;;;;;5.10;1.10;;;;;;;22.38;23.26;101255.39;109566;1272;21982;-79
2023/06/03 10:00:50;;;;;;;2.40;0.90;;;;;;;22.31;22.85;101249.17;109463;1272;22520;-78
2023/06/03 10:03:33;;;;;;;3.60;1.50;;;;;;;22.04;22.67;101252.70;109385;1271;21995;-78
2023/06/03 10:06:21;;;;;;;6.50;1.90;;;;;;;21.79;22.96;101247.19;109605;1272;21996;-79
2023/06/03 10:08:50;;;;;;;3.20;2.70;;;;;;;21.81;22.88;101247.03;109744;1266;21962;-78
2023/06/03 10:11:23;;;;;;;3.00;1.20;;;;;;;21.79;22.67;101249.69;109793;1267;23014;-79
2023/06/03 10:14:09;;;;;;;3.70;1.70;;;;;;;21.42;22.76;101243.09;109917;1260;22764;-78
2023/06/03 10:17:05;;;;;;;3.10;1.80;;;;;;;21.18;23.53;101241.30;109915;1267;22020;-78
2023/06/03 10:19:48;;;;;;;3.20;2.40;;;;;;;21.18;23.42;101236.68;110089;1266;22012;-78
2023/06/03 10:22:29;;;;;;;4.90;1.70;;;;;;;21.23;23.29;101233.51;109838;1267;22038;-78
2023/06/03 10:25:15;;;;;;;2.40;0.90;;;;;;;21.21;23.36;101235.45;109890;1267;22772;-78
2023/06/03 10:27:47;;;;;;;4.40;1.40;;;;;;;21.04;23.09;101235.56;109771;1267;21987;-77
2023/06/03 10:30:23;;;;;;;2.90;1.20;;;;;;;20.75;23.01;101230.21;109865;1267;21979;-78
2023/06/03 10:33:03;;;;;;;2.30;0.80;;;;;;;20.49;23.25;101236.70;109501;1267;22063;-79
2023/06/03 10:35:41;;;;;;;3.40;1.80;;;;;;;20.32;23.42;101226.84;109870;1267;21956;-80
2023/06/03 10:38:10;;;;;;;5.20;1.10;;;;;;;20.28;23.53;101228.14;109177;1273;22029;-78
2023/06/03 10:40:44;;;;;;;2.60;1.40;;;;;;;20.14;23.67;101220.90;109000;1275;22982;-79
2023/06/03 10:43:21;;;;;;;2.70;1.20;;;;;;;20.13;23.99;101220.07;108765;1279;23784;-79
2023/06/03 10:46:03;;;;;;;3.60;1.20;;;;;;;19.98;23.69;101226.50;108633;1280;23644;-78
2023/06/03 10:48:48;;;;;;;37.70;34.40;;;;;;;19.64;23.94;101220.13;108648;1273;22011;-79
2023/06/03 10:51:55;;;;;;;8.60;5.40;;;;;;;19.49;24.41;101211.72;108639;1280;24359;-78
2023/06/03 10:54:54;;;;;;;2.30;1.50;;;;;;;19.39;24.40;101211.81;108802;1280;23786;-79
2023/06/03 10:57:38;;;;;;;2.70;1.50;;;;;;;19.06;24.53;101206.02;109185;1273;22931;-83
2023/06/03 11:00:53;;;;;;;3.50;1.30;;;;;;;18.91;25.20;101209.71;109339;1272;22254;-79
2023/06/03 11:03:52;;;;;;;1.30;0.80;;;;;;;18.75;25.46;101208.39;110212;1267;21978;-77
2023/06/03 11:06:30;;;;;;;3.60;1.60;;;;;;;18.73;25.59;101200.73;110165;1266;21973;-80
2023/06/03 11:09:17;;;;;;;2.10;1.10;;;;;;;18.78;25.41;101192.67;109460;1273;21999;-78
2023/06/03 11:11:58;;;;;;;4.40;1.20;;;;;;;18.79;25.42;101195.64;109084;1273;23018;-77
2023/06/03 11:14:44;;;;;;;3.40;1.50;;;;;;;18.81;25.63;101198.15;109149;1270;22028;-80
2023/06/03 11:17:42;;;;;;;2.80;1.20;;;;;;;18.63;25.66;101202.52;109604;1273;21987;-78
2023/06/03 11:20:39;;;;;;;4.80;1.20;;;;;;;18.40;26.14;101194.35;109076;1273;23054;-79
2023/06/03 11:23:45;;;;;;;3.00;1.40;;;;;;;18.23;26.19;101193.19;109139;1271;22416;-79
2023/06/03 11:26:38;;;;;;;4.10;1.30;;;;;;;18.12;26.74;101188.85;109404;1268;23085;-81
2023/06/03 11:29:46;;;;;;;4.00;1.50;;;;;;;18.21;26.77;101190.83;109667;1267;23862;-80
2023/06/03 11:32:24;;;;;;;2.30;0.90;;;;;;;18.13;25.99;101185.81;109852;1269;22009;-80
2023/06/03 11:35:12;;;;;;;2.30;1.20;;;;;;;18.08;25.93;101183.45;109428;1260;22009;-80
2023/06/03 11:38:07;;;;;;;3.30;0.90;;;;;;;18.11;25.88;101183.61;109081;1277;22021;-81
2023/06/03 11:40:47;;;;;;;5.00;1.50;;;;;;;18.14;25.87;101187.70;108887;1277;22268;-80
2023/06/03 11:43:21;;;;;;;3.20;2.40;;;;;;;18.10;26.13;101192.31;109097;1277;22003;-81
2023/06/03 11:45:50;;;;;;;2.90;1.60;;;;;;;18.08;26.27;101185.91;109201;1271;22013;-78
2023/06/03 11:48:36;;;;;;;15.20;1.90;;;;;;;18.18;26.56;101182.70;108888;1277;22461;-80
2023/06/03 11:51:05;;;;;;;3.00;1.00;;;;;;;18.29;26.87;101181.22;109063;1277;22001;-79
2023/06/03 11:54:50;;;;;;;1.70;0.60;;;;;;;18.43;27.27;101184.27;108995;1277;21992;-80
2023/06/03 11:58:22;;;;;;;5.20;2.90;;;;;;;18.60;27.41;101182.44;109971;1271;22021;-83
2023/06/03 12:01:20;;;;;;;6.10;2.30;;;;;;;18.63;27.09;101182.60;109350;1276;22032;-81
2023/06/03 12:04:02;;;;;;;4.30;1.70;;;;;;;18.64;26.98;101180.60;109374;1276;22035;-82
2023/06/03 12:06:49;;;;;;;3.70;1.80;;;;;;;18.63;26.97;101172.05;109475;1273;22346;-82
2023/06/03 12:12:29;;;;;;;4.00;2.40;;;;;;;18.74;26.79;101161.88;109473;1273;22576;-83
2023/06/03 12:15:10;;;;;;;3.80;1.10;;;;;;;18.70;26.70;101163.12;109672;1273;21901;-81
2023/06/03 12:17:43;;;;;;;7.40;1.60;;;;;;;18.61;26.57;101163.84;109522;1273;22327;-82
2023/06/03 12:20:38;;;;;;;6.00;1.30;;;;;;;18.44;26.33;101158.52;109467;1273;22520;-80
2023/06/03 12:23:15;;;;;;;2.10;1.50;;;;;;;18.35;26.47;101153.77;109410;1273;22631;-80
2023/06/03 12:25:44;;;;;;;7.20;4.20;;;;;;;18.42;26.58;101153.36;109430;1273;23727;-81
2023/06/03 12:28:28;;;;;;;5.30;1.40;;;;;;;18.55;26.72;101152.77;109498;1273;23666;-82
2023/06/03 12:30:58;;;;;;;4.00;2.60;;;;;;;18.59;26.37;101157.46;109484;1273;21985;-81
2023/06/03 12:34:03;;;;;;;3.10;0.90;;;;;;;18.54;26.34;101152.78;109956;1267;21998;-83
2023/06/03 12:36:49;;;;;;;4.40;1.00;;;;;;;18.54;26.39;101158.29;109603;1268;21988;-81
2023/06/03 12:39:21;;;;;;;2.00;0.90;;;;;;;18.50;26.20;101157.81;109481;1273;22736;-83
2023/06/03 12:42:00;;;;;;;5.80;1.30;;;;;;;18.41;25.92;101153.93;109435;1274;22463;-81
2023/06/03 12:44:52;;;;;;;3.30;0.70;;;;;;;18.29;25.98;101151.56;109451;1274;23637;-81